createdAt,value
2019-04-01T00:00:09.365Z,13.33
2019-04-01T00:02:36.641Z,12.93
2019-04-01T00:05:04.225Z,13.50
2019-04-01T00:07:31.497Z,12.57
2019-04-01T00:09:58.772Z,11.97
2019-04-01T00:12:26.188Z,11.00
2019-04-01T00:14:53.437Z,11.53
2019-04-01T00:17:20.709Z,12.20
2019-04-01T00:19:48.025Z,11.17
2019-04-01T00:22:15.300Z,12.53
2019-04-01T00:24:42.573Z,12.53
2019-04-01T00:27:09.872Z,12.17
2019-04-01T00:29:37.140Z,12.30
2019-04-01T00:32:04.416Z,11.97
2019-04-01T00:34:31.808Z,12.77
2019-04-01T00:36:59.089Z,11.77
2019-04-01T00:39:26.366Z,12.17
2019-04-01T00:41:55.301Z,11.70
2019-04-01T00:44:22.573Z,12.37
2019-04-01T00:46:49.857Z,11.43
2019-04-01T00:49:17.157Z,14.33
2019-04-01T00:51:44.435Z,13.83
2019-04-01T00:54:11.710Z,12.43
2019-04-01T00:56:39.003Z,13.23
2019-04-01T00:59:06.287Z,12.50
2019-04-01T01:01:34.757Z,13.03
2019-04-01T01:04:02.490Z,11.50
2019-04-01T01:06:29.761Z,12.67
2019-04-01T01:08:57.040Z,12.27
2019-04-01T01:11:24.347Z,13.03
2019-04-01T01:13:51.625Z,13.03
2019-04-01T01:16:18.903Z,13.30
2019-04-01T01:18:46.225Z,11.83
2019-04-01T01:21:13.492Z,13.20
2019-04-01T01:23:40.764Z,12.43
2019-04-01T01:26:08.071Z,11.83
2019-04-01T01:28:35.349Z,11.50
2019-04-01T01:31:02.616Z,13.43
2019-04-01T01:33:29.928Z,14.50
2019-04-01T01:35:57.206Z,14.30
2019-04-01T01:38:24.483Z,12.60
2019-04-01T01:40:51.783Z,13.90
2019-04-01T01:43:19.069Z,12.43
2019-04-01T01:45:46.341Z,12.70
2019-04-01T01:48:14.060Z,12.27
2019-04-01T01:50:41.333Z,14.13
2019-04-01T01:53:08.608Z,12.00
2019-04-01T01:55:35.908Z,13.27
2019-04-01T01:58:03.185Z,13.10
2019-04-01T02:00:31.034Z,12.60
2019-04-01T02:02:58.355Z,12.83
2019-04-01T02:05:25.769Z,13.47
2019-04-01T02:07:53.129Z,14.60
2019-04-01T02:10:20.677Z,13.20
2019-04-01T02:12:47.945Z,13.50
2019-04-01T02:15:15.226Z,12.77
2019-04-01T02:17:42.533Z,13.40
2019-04-01T02:20:09.916Z,12.97
2019-04-01T02:22:37.249Z,12.90
2019-04-01T02:25:04.833Z,14.97
2019-04-01T02:27:32.184Z,13.90
2019-04-01T02:29:59.468Z,13.33
2019-04-01T02:32:26.777Z,14.30
2019-04-01T02:34:54.114Z,15.07
2019-04-01T02:37:23.450Z,13.73
2019-04-01T02:39:50.869Z,12.63
2019-04-01T02:42:18.152Z,14.40
2019-04-01T02:44:45.493Z,13.17
2019-04-01T02:47:12.800Z,13.20
2019-04-01T02:49:40.097Z,13.50
2019-04-01T02:52:07.443Z,12.40
2019-04-01T02:54:34.753Z,11.27
2019-04-01T02:57:02.133Z,12.10
2019-04-01T02:59:29.477Z,12.87
2019-04-01T03:01:56.804Z,13.27
2019-04-01T03:04:24.149Z,14.30
2019-04-01T03:06:51.510Z,12.80
2019-04-01T03:09:18.844Z,13.53
2019-04-01T03:11:46.197Z,13.40
2019-04-01T03:14:13.541Z,12.53
2019-04-01T03:16:41.003Z,13.63
2019-04-01T03:19:08.290Z,12.20
2019-04-01T03:21:35.718Z,13.20
2019-04-01T03:24:03.190Z,13.60
2019-04-01T03:26:30.570Z,13.37
2019-04-01T03:28:57.844Z,13.23
2019-04-01T03:31:25.234Z,13.90
2019-04-01T03:33:52.573Z,13.60
2019-04-01T03:36:19.954Z,13.03
2019-04-01T03:38:47.265Z,12.47
2019-04-01T03:41:14.552Z,14.40
2019-04-01T03:43:42.402Z,14.97
2019-04-01T03:46:09.808Z,13.70
2019-04-01T03:48:37.149Z,12.33
2019-04-01T03:51:04.435Z,14.50
2019-04-01T03:53:31.818Z,13.10
2019-04-01T03:55:59.190Z,13.80
2019-04-01T03:58:26.563Z,11.87
2019-04-01T04:00:53.940Z,12.87
2019-04-01T04:03:21.290Z,13.60
2019-04-01T04:05:49.416Z,12.90
2019-04-01T04:08:16.921Z,13.70
2019-04-01T04:10:44.211Z,13.10
2019-04-01T04:13:11.505Z,14.07
2019-04-01T04:15:39.016Z,15.00
2019-04-01T04:18:07.408Z,14.70
2019-04-01T04:20:34.711Z,14.00
2019-04-01T04:23:02.166Z,15.27
2019-04-01T04:25:29.676Z,15.40
2019-04-01T04:27:56.978Z,15.37
2019-04-01T04:30:24.366Z,15.53
2019-04-01T04:32:51.743Z,15.30
2019-04-01T04:35:20.248Z,15.20
2019-04-01T04:37:47.670Z,15.83
2019-04-01T04:40:15.160Z,14.77
2019-04-01T04:42:42.452Z,16.03
2019-04-01T04:45:10.002Z,15.10
2019-04-01T04:47:37.285Z,14.60
2019-04-01T04:50:04.805Z,14.73
2019-04-01T04:52:33.263Z,16.90
2019-04-01T04:55:00.579Z,15.57
2019-04-01T04:57:27.951Z,16.10
2019-04-01T04:59:55.294Z,16.30
2019-04-01T05:02:24.559Z,14.73
2019-04-01T05:04:51.652Z,17.03
2019-04-01T05:07:19.155Z,16.07
2019-04-01T05:09:46.500Z,15.70
2019-04-01T05:12:13.807Z,15.63
2019-04-01T05:14:41.265Z,15.30
2019-04-01T05:17:08.569Z,16.00
2019-04-01T05:19:35.910Z,16.87
2019-04-01T05:22:03.506Z,16.87
2019-04-01T05:24:30.929Z,16.23
2019-04-01T05:26:59.371Z,15.43
2019-04-01T05:29:27.652Z,16.43
2019-04-01T05:31:56.092Z,15.77
2019-04-01T05:34:24.704Z,15.90
2019-04-01T05:36:52.091Z,16.40
2019-04-01T05:39:19.922Z,16.07
2019-04-01T05:41:47.212Z,15.63
2019-04-01T05:44:14.673Z,17.43
2019-04-01T05:46:42.029Z,17.63
2019-04-01T05:49:10.553Z,19.87
2019-04-01T05:51:37.956Z,18.30
2019-04-01T05:54:07.284Z,21.17
2019-04-01T05:56:34.957Z,37.00
2019-04-01T05:59:02.346Z,70.00
2019-04-01T06:01:31.341Z,47.10
2019-04-01T06:03:58.634Z,24.63
2019-04-01T06:06:26.116Z,25.97
2019-04-01T06:08:53.430Z,21.30
2019-04-01T06:11:20.782Z,21.20
2019-04-01T06:13:48.271Z,19.47
2019-04-01T06:16:15.627Z,18.40
2019-04-01T06:18:42.965Z,18.47
2019-04-01T06:21:10.553Z,18.17
2019-04-01T06:23:37.925Z,16.00
2019-04-01T06:26:05.277Z,17.83
2019-04-01T06:28:32.732Z,16.80
2019-04-01T06:31:00.093Z,18.33
2019-04-01T06:33:27.740Z,16.10
2019-04-01T06:35:55.224Z,17.60
2019-04-01T06:38:22.520Z,17.50
2019-04-01T06:40:49.953Z,16.03
2019-04-01T06:43:17.409Z,17.93
2019-04-01T06:45:44.766Z,16.50
2019-04-01T06:48:12.125Z,19.03
2019-04-01T06:50:39.517Z,18.13
2019-04-01T06:53:07.987Z,18.63
2019-04-01T06:55:35.424Z,17.00
2019-04-01T06:58:02.809Z,19.10
2019-04-01T07:00:30.159Z,18.33
2019-04-01T07:02:57.713Z,19.23
2019-04-01T07:05:25.120Z,17.80
2019-04-01T07:07:52.467Z,17.53
2019-04-01T07:10:24.592Z,17.57
2019-04-01T07:12:50.354Z,18.90
2019-04-01T07:15:17.644Z,17.83
2019-04-01T07:17:44.922Z,18.63
2019-04-01T07:20:12.481Z,18.70
2019-04-01T07:22:39.759Z,16.83
2019-04-01T07:25:07.185Z,18.50
2019-04-01T07:27:34.521Z,18.90
2019-04-01T07:30:01.886Z,18.37
2019-04-01T07:32:29.305Z,17.67
2019-04-01T07:34:56.712Z,19.27
2019-04-01T07:37:24.065Z,18.17
2019-04-01T07:39:51.370Z,19.17
2019-04-01T07:42:18.753Z,19.40
2019-04-01T07:44:46.096Z,17.60
2019-04-01T07:47:13.376Z,18.20
2019-04-01T07:49:40.767Z,20.10
2019-04-01T07:52:08.237Z,19.53
2019-04-01T07:54:35.588Z,18.97
2019-04-01T07:57:02.986Z,17.60
2019-04-01T07:59:30.264Z,14.90
2019-04-01T08:01:57.924Z,15.37
2019-04-01T08:04:25.338Z,15.83
2019-04-01T08:06:52.722Z,16.10
2019-04-01T08:09:20.085Z,16.07
2019-04-01T08:11:50.013Z,16.00
2019-04-01T08:14:16.631Z,15.93
2019-04-01T08:16:44.025Z,16.77
2019-04-01T08:19:11.402Z,15.63
2019-04-01T08:21:38.747Z,16.33
2019-04-01T08:24:06.200Z,15.47
2019-04-01T08:26:33.576Z,15.03
2019-04-01T08:29:00.939Z,16.90
2019-04-01T08:31:28.307Z,15.83
2019-04-01T08:33:55.781Z,16.50
2019-04-01T08:36:23.233Z,16.80
2019-04-01T08:38:50.557Z,16.73
2019-04-01T08:41:18.020Z,16.80
2019-04-01T08:43:45.476Z,15.40
2019-04-01T08:46:12.748Z,16.63
2019-04-01T08:48:40.146Z,17.20
2019-04-01T08:51:07.546Z,15.67
2019-04-01T08:53:35.002Z,18.37
2019-04-01T08:56:02.605Z,20.30
2019-04-01T08:58:30.029Z,17.37
2019-04-01T09:00:57.328Z,18.13
2019-04-01T09:03:24.729Z,18.57
2019-04-01T09:05:52.160Z,17.33
2019-04-01T09:08:20.212Z,19.17
2019-04-01T09:10:47.634Z,18.27
2019-04-01T09:13:17.292Z,19.50
2019-04-01T09:15:44.645Z,18.93
2019-04-01T09:18:11.970Z,18.83
2019-04-01T09:20:39.256Z,20.63
2019-04-01T09:23:06.549Z,20.10
2019-04-01T09:25:33.860Z,19.57
2019-04-01T09:28:01.257Z,19.40
2019-04-01T09:30:28.704Z,19.67
2019-04-01T09:32:56.100Z,19.80
2019-04-01T09:35:23.458Z,19.83
2019-04-01T09:37:50.757Z,20.20
2019-04-01T09:40:18.162Z,20.30
2019-04-01T09:42:45.453Z,18.87
2019-04-01T09:45:12.857Z,18.67
2019-04-01T09:47:40.240Z,20.57
2019-04-01T09:50:08.070Z,19.93
2019-04-01T09:52:35.344Z,18.23
2019-04-01T09:55:06.355Z,18.90
2019-04-01T09:57:33.805Z,17.90
2019-04-01T10:00:01.102Z,18.27
2019-04-01T10:02:31.946Z,18.70
2019-04-01T10:04:57.548Z,17.17
2019-04-01T10:07:25.340Z,18.13
2019-04-01T10:09:52.694Z,18.93
2019-04-01T10:12:19.963Z,18.00
2019-04-01T10:14:48.878Z,17.90
2019-04-01T10:17:16.335Z,16.90
2019-04-01T10:19:43.608Z,17.67
2019-04-01T10:22:10.889Z,17.33
2019-04-01T10:24:38.207Z,19.13
2019-04-01T10:27:05.482Z,18.13
2019-04-01T10:29:32.773Z,19.90
2019-04-01T10:32:00.284Z,18.33
2019-04-01T10:34:27.578Z,19.30
2019-04-01T10:36:54.861Z,17.50
2019-04-01T10:39:22.222Z,17.57
2019-04-01T10:41:49.514Z,20.60
2019-04-01T10:44:16.786Z,18.87
2019-04-01T10:46:44.115Z,18.70
2019-04-01T10:49:11.532Z,18.80
2019-04-01T10:51:38.950Z,18.77
2019-04-01T10:54:06.336Z,20.37
2019-04-01T10:56:35.836Z,19.50
2019-04-01T10:59:02.662Z,18.70
2019-04-01T11:01:30.185Z,16.57
2019-04-01T11:03:57.539Z,18.30
2019-04-01T11:06:24.807Z,17.97
2019-04-01T11:08:52.194Z,17.27
2019-04-01T11:11:19.488Z,16.80
2019-04-01T11:13:46.761Z,18.27
2019-04-01T11:16:14.072Z,17.53
2019-04-01T11:18:41.409Z,18.13
2019-04-01T11:21:08.748Z,17.90
2019-04-01T11:23:37.840Z,20.47
2019-04-01T11:26:05.196Z,20.20
2019-04-01T11:28:32.473Z,19.00
2019-04-01T11:30:59.846Z,21.53
2019-04-01T11:33:27.233Z,19.30
2019-04-01T11:35:54.600Z,18.90
2019-04-01T11:38:21.965Z,17.30
2019-04-01T11:40:49.234Z,16.07
2019-04-01T11:43:16.512Z,15.73
2019-04-01T11:45:43.831Z,17.20
2019-04-01T11:48:11.300Z,17.90
2019-04-01T11:50:38.607Z,16.40
2019-04-01T11:53:06.952Z,17.70
2019-04-01T11:55:34.440Z,17.80
2019-04-01T11:58:01.730Z,17.87
2019-04-01T12:00:29.127Z,19.60
2019-04-01T12:02:56.473Z,17.63
2019-04-01T12:05:23.761Z,17.90
2019-04-01T12:07:51.241Z,18.07
2019-04-01T12:10:18.532Z,17.23
2019-04-01T12:12:45.813Z,16.33
2019-04-01T12:15:14.719Z,16.50
2019-04-01T12:17:42.313Z,16.00
2019-04-01T12:20:09.927Z,16.20
2019-04-01T12:22:37.850Z,16.93
2019-04-01T12:25:06.272Z,17.77
2019-04-01T12:27:33.551Z,15.83
2019-04-01T12:30:01.000Z,15.40
2019-04-01T12:32:28.280Z,14.20
2019-04-01T12:34:55.620Z,15.03
2019-04-01T12:37:22.928Z,16.67
2019-04-01T12:39:50.202Z,14.97
2019-04-01T12:42:17.546Z,15.60
2019-04-01T12:44:44.880Z,14.47
2019-04-01T12:47:12.247Z,15.90
2019-04-01T12:49:39.587Z,15.00
2019-04-01T12:52:06.948Z,14.00
2019-04-01T12:54:34.258Z,14.83
2019-04-01T12:57:01.540Z,13.60
2019-04-01T12:59:28.867Z,13.80
2019-04-01T13:01:56.201Z,13.83
2019-04-01T13:04:23.481Z,14.60
2019-04-01T13:06:51.550Z,14.13
2019-04-01T13:09:19.030Z,14.70
2019-04-01T13:11:46.298Z,14.43
2019-04-01T13:14:13.823Z,13.67
2019-04-01T13:16:41.454Z,14.33
2019-04-01T13:19:08.720Z,15.10
2019-04-01T13:21:36.095Z,15.10
2019-04-01T13:24:04.973Z,15.37
2019-04-01T13:26:32.385Z,14.27
2019-04-01T13:28:59.691Z,13.90
2019-04-01T13:31:26.956Z,14.93
2019-04-01T13:33:54.244Z,15.27
2019-04-01T13:36:21.589Z,15.70
2019-04-01T13:38:48.928Z,13.67
2019-04-01T13:41:16.281Z,14.30
2019-04-01T13:43:43.677Z,14.60
2019-04-01T13:46:11.866Z,14.10
2019-04-01T13:48:39.144Z,16.17
2019-04-01T13:51:06.440Z,14.80
2019-04-01T13:53:33.749Z,16.03
2019-04-01T13:56:01.033Z,16.07
2019-04-01T13:58:28.331Z,14.00
2019-04-01T14:00:55.616Z,14.50
2019-04-01T14:03:22.900Z,14.77
2019-04-01T14:05:50.216Z,13.90
2019-04-01T14:08:17.496Z,13.50
2019-04-01T14:10:44.836Z,14.17
2019-04-01T14:13:12.504Z,14.97
2019-04-01T14:15:39.854Z,15.77
2019-04-01T14:18:07.700Z,16.60
2019-04-01T14:20:35.011Z,14.80
2019-04-01T14:23:02.341Z,14.10
2019-04-01T14:25:29.624Z,15.70
2019-04-01T14:27:56.924Z,16.53
2019-04-01T14:30:24.217Z,16.20
2019-04-01T14:32:51.581Z,16.03
2019-04-01T14:35:18.893Z,15.40
2019-04-01T14:37:46.203Z,15.47
2019-04-01T14:40:13.654Z,14.93
2019-04-01T14:42:40.996Z,15.13
2019-04-01T14:45:09.731Z,16.10
2019-04-01T14:47:49.969Z,15.23
2019-04-01T14:50:07.777Z,16.70
2019-04-01T14:52:35.188Z,16.00
2019-04-01T14:55:02.925Z,15.60
2019-04-01T14:57:30.328Z,15.90
2019-04-01T14:59:57.625Z,15.90
2019-04-01T15:02:24.982Z,16.47
2019-04-01T15:04:52.304Z,16.80
2019-04-01T15:07:19.581Z,16.17
2019-04-01T15:09:46.937Z,17.30
2019-04-01T15:12:14.322Z,17.00
2019-04-01T15:14:41.596Z,16.47
2019-04-01T15:17:08.880Z,17.00
2019-04-01T15:19:36.204Z,15.90
2019-04-01T15:22:03.665Z,16.63
2019-04-01T15:24:31.006Z,15.93
2019-04-01T15:26:58.310Z,16.07
2019-04-01T15:29:25.589Z,16.03
2019-04-01T15:31:54.957Z,16.37
2019-04-01T15:34:22.264Z,15.23
2019-04-01T15:36:49.544Z,16.17
2019-04-01T15:39:17.046Z,15.67
2019-04-01T15:41:45.325Z,16.80
2019-04-01T15:44:12.885Z,16.57
2019-04-01T15:46:40.277Z,14.50
2019-04-01T15:49:11.108Z,16.63
2019-04-01T15:51:36.870Z,16.97
2019-04-01T15:54:04.454Z,17.17
2019-04-01T15:56:31.823Z,16.43
2019-04-01T15:58:59.184Z,16.17
2019-04-01T16:01:26.537Z,16.93
2019-04-01T16:03:53.945Z,16.23
2019-04-01T16:06:21.309Z,16.77
2019-04-01T16:08:48.821Z,15.80
2019-04-01T16:11:16.157Z,15.90
2019-04-01T16:13:43.476Z,15.60
2019-04-01T16:16:14.184Z,15.90
2019-04-01T16:18:39.863Z,15.63
2019-04-01T16:21:07.163Z,16.67
2019-04-01T16:23:34.441Z,15.80
2019-04-01T16:26:02.385Z,15.70
2019-04-01T16:28:29.661Z,15.30
2019-04-01T16:30:57.173Z,15.70
2019-04-01T16:33:24.649Z,17.20
2019-04-01T16:35:51.965Z,16.37
2019-04-01T16:38:19.338Z,16.33
2019-04-01T16:40:47.973Z,16.30
2019-04-01T16:43:17.092Z,16.60
2019-04-01T16:45:44.624Z,15.83
2019-04-01T16:48:12.020Z,16.07
2019-04-01T16:50:39.341Z,16.10
2019-04-01T16:53:06.691Z,15.47
2019-04-01T16:55:34.170Z,16.80
2019-04-01T16:58:03.061Z,16.50
2019-04-01T17:00:30.619Z,16.27
2019-04-01T17:02:58.096Z,16.67
2019-04-01T17:05:32.949Z,15.37
2019-04-01T17:08:00.241Z,15.87
2019-04-01T17:10:27.664Z,16.60
2019-04-01T17:12:55.049Z,16.47
2019-04-01T17:15:22.739Z,16.27
2019-04-01T17:17:50.165Z,16.57
2019-04-01T17:20:20.430Z,15.70
2019-04-01T17:22:47.877Z,15.80
2019-04-01T17:25:16.895Z,16.80
2019-04-01T17:27:44.341Z,16.33
2019-04-01T17:30:12.990Z,18.37
2019-04-01T17:32:40.388Z,16.47
2019-04-01T17:35:07.776Z,15.40
2019-04-01T17:37:35.155Z,16.60
2019-04-01T17:40:02.905Z,16.00
2019-04-01T17:42:30.203Z,16.10
2019-04-01T17:44:58.483Z,16.37
2019-04-01T17:47:27.443Z,15.50
2019-04-01T17:49:56.542Z,16.50
2019-04-01T17:52:25.190Z,15.97
2019-04-01T17:54:52.841Z,16.70
2019-04-01T17:57:20.123Z,16.10
2019-04-01T17:59:47.487Z,16.60
2019-04-01T18:02:16.481Z,15.57
2019-04-01T18:04:45.301Z,15.57
2019-04-01T18:07:12.665Z,16.00
2019-04-01T18:09:41.699Z,16.93
2019-04-01T18:12:09.056Z,16.97
2019-04-01T18:14:36.427Z,16.37
2019-04-01T18:17:03.901Z,15.77
2019-04-01T18:19:31.273Z,17.60
2019-04-01T18:22:00.165Z,15.90
2019-04-01T18:24:27.680Z,16.30
2019-04-01T18:26:55.059Z,14.60
2019-04-01T18:29:22.324Z,15.90
2019-04-01T18:31:51.726Z,16.20
2019-04-01T18:34:19.005Z,15.17
2019-04-01T18:36:47.366Z,14.40
2019-04-01T18:39:15.321Z,15.83
2019-04-01T18:41:44.008Z,15.70
2019-04-01T18:44:11.285Z,14.30
2019-04-01T18:46:38.697Z,14.47
2019-04-01T18:49:05.981Z,16.27
2019-04-01T18:51:36.406Z,16.37
2019-04-01T18:54:02.548Z,14.80
2019-04-01T18:56:29.854Z,15.20
2019-04-01T18:58:57.236Z,15.03
2019-04-01T19:01:26.202Z,15.03
2019-04-01T19:03:53.558Z,14.70
2019-04-01T19:06:21.446Z,14.63
2019-04-01T19:08:48.862Z,15.60
2019-04-01T19:11:16.240Z,15.67
2019-04-01T19:13:43.694Z,14.20
2019-04-01T19:16:12.621Z,16.10
2019-04-01T19:18:41.887Z,15.60
2019-04-01T19:21:09.432Z,16.90
2019-04-01T19:23:37.199Z,15.77
2019-04-01T19:26:10.395Z,16.07
2019-04-01T19:28:33.636Z,15.20
2019-04-01T19:31:04.678Z,17.50
2019-04-01T19:33:32.029Z,16.43
2019-04-01T19:36:00.326Z,17.27
2019-04-01T19:38:28.544Z,17.20
2019-04-01T19:40:55.933Z,17.80
2019-04-01T19:43:23.242Z,16.40
2019-04-01T19:45:50.840Z,16.23
2019-04-01T19:48:19.824Z,16.13
2019-04-01T19:50:47.458Z,17.53
2019-04-01T19:53:14.886Z,16.50
2019-04-01T19:55:47.318Z,15.77
2019-04-01T19:58:14.689Z,16.53
2019-04-01T20:00:42.309Z,16.80
2019-04-01T20:03:09.675Z,15.53
2019-04-01T20:05:37.061Z,17.23
2019-04-01T20:08:04.509Z,15.53
2019-04-01T20:10:32.874Z,14.07
2019-04-01T20:13:00.161Z,14.90
2019-04-01T20:15:27.501Z,14.97
2019-04-01T20:17:54.825Z,15.53
2019-04-01T20:20:22.109Z,14.40
2019-04-01T20:22:49.424Z,17.60
2019-04-01T20:25:17.172Z,15.53
2019-04-01T20:27:44.824Z,13.97
2019-04-01T20:30:12.293Z,15.90
2019-04-01T20:32:39.574Z,15.17
2019-04-01T20:35:07.837Z,14.33
2019-04-01T20:37:35.199Z,15.47
2019-04-01T20:40:02.881Z,15.03
2019-04-01T20:42:30.234Z,14.80
2019-04-01T20:44:57.537Z,14.13
2019-04-01T20:47:24.988Z,14.97
2019-04-01T20:49:52.266Z,14.57
2019-04-01T20:52:19.571Z,14.70
2019-04-01T20:54:46.850Z,15.27
2019-04-01T20:57:14.188Z,14.30
2019-04-01T20:59:41.578Z,13.43
2019-04-01T21:02:08.848Z,14.23
2019-04-01T21:04:36.373Z,14.67
2019-04-01T21:07:03.805Z,14.70
2019-04-01T21:09:37.821Z,15.50
2019-04-01T21:12:05.102Z,14.50
2019-04-01T21:14:32.768Z,14.27
2019-04-01T21:17:00.136Z,14.10
2019-04-01T21:19:27.410Z,13.10
2019-04-01T21:21:54.894Z,13.40
2019-04-01T21:24:22.178Z,15.80
2019-04-01T21:26:49.453Z,14.30
2019-04-01T21:29:16.757Z,14.47
2019-04-01T21:31:44.042Z,15.00
2019-04-01T21:34:11.614Z,14.30
2019-04-01T21:36:39.138Z,15.93
2019-04-01T21:39:06.587Z,14.73
2019-04-01T21:41:33.941Z,14.47
2019-04-01T21:44:01.373Z,16.50
2019-04-01T21:46:28.640Z,17.13
2019-04-01T21:48:55.929Z,15.43
2019-04-01T21:51:23.357Z,16.10
2019-04-01T21:53:50.633Z,15.93
2019-04-01T21:56:17.912Z,14.67
2019-04-01T21:58:45.312Z,16.80
2019-04-01T22:01:14.432Z,15.93
2019-04-01T22:03:42.135Z,14.63
2019-04-01T22:06:09.997Z,14.40
2019-04-01T22:08:37.269Z,15.13
2019-04-01T22:11:04.813Z,13.90
2019-04-01T22:13:32.124Z,15.00
2019-04-01T22:15:59.405Z,13.43
2019-04-01T22:18:26.697Z,13.40
2019-04-01T22:20:53.998Z,14.70
2019-04-01T22:23:21.281Z,14.77
2019-04-01T22:25:48.557Z,14.43
2019-04-01T22:28:15.880Z,14.53
2019-04-01T22:30:43.157Z,13.57
2019-04-01T22:33:11.280Z,14.60
2019-04-01T22:35:40.556Z,14.13
2019-04-01T22:38:08.021Z,13.60
2019-04-01T22:40:35.319Z,14.77
2019-04-01T22:43:02.669Z,13.87
2019-04-01T22:45:29.945Z,15.53
2019-04-01T22:47:57.216Z,13.90
2019-04-01T22:50:24.544Z,14.00
2019-04-01T22:52:51.812Z,13.97
2019-04-01T22:55:19.085Z,13.97
2019-04-01T22:57:46.460Z,16.30
2019-04-01T23:00:13.917Z,15.00
2019-04-01T23:02:42.221Z,13.23
2019-04-01T23:05:09.861Z,14.77
2019-04-01T23:07:37.140Z,13.53
2019-04-01T23:10:05.883Z,14.90
2019-04-01T23:12:33.188Z,15.90
2019-04-01T23:15:00.456Z,14.90
2019-04-01T23:17:27.740Z,13.70
2019-04-01T23:19:55.048Z,13.80
2019-04-01T23:22:22.324Z,14.13
2019-04-01T23:24:49.606Z,15.43
2019-04-01T23:27:16.912Z,15.90
2019-04-01T23:29:44.193Z,16.23
2019-04-01T23:32:11.535Z,15.30
2019-04-01T23:34:38.847Z,15.20
2019-04-01T23:37:06.118Z,17.40
2019-04-01T23:39:34.275Z,15.10
2019-04-01T23:42:01.733Z,15.63
2019-04-01T23:44:29.009Z,16.90
2019-04-01T23:46:56.281Z,14.73
2019-04-01T23:49:23.576Z,17.10
2019-04-01T23:51:50.848Z,18.17
2019-04-01T23:54:18.120Z,16.67
2019-04-01T23:56:45.417Z,16.27
2019-04-01T23:59:12.697Z,17.40
